createdAt,value
2022-11-24T00:01:19.757Z,44.50
2022-11-24T00:03:53.524Z,48.00
2022-11-24T00:06:21.227Z,46.75
2022-11-24T00:08:48.692Z,42.00
2022-11-24T00:11:21.982Z,34.50
2022-11-24T00:13:49.547Z,41.00
2022-11-24T00:16:22.949Z,38.50
2022-11-24T00:18:52.104Z,43.75
2022-11-24T00:21:20.604Z,47.00
2022-11-24T00:23:49.325Z,42.75
2022-11-24T00:26:21.993Z,44.75
2022-11-24T00:28:51.005Z,44.00
2022-11-24T00:31:20.209Z,39.00
2022-11-24T00:33:49.338Z,52.50
2022-11-24T00:36:18.596Z,38.75
2022-11-24T00:38:46.245Z,38.50
2022-11-24T00:41:14.252Z,42.00
2022-11-24T00:43:41.424Z,47.33
2022-11-24T00:46:09.030Z,54.00
2022-11-24T00:48:36.341Z,39.00
2022-11-24T00:51:06.890Z,38.00
2022-11-24T00:53:34.453Z,41.50
2022-11-24T00:56:04.328Z,38.00
2022-11-24T00:58:32.117Z,40.00
2022-11-24T01:01:11.380Z,33.25
2022-11-24T01:03:38.950Z,39.75
2022-11-24T01:06:09.168Z,33.50
2022-11-24T01:08:38.336Z,39.75
2022-11-24T01:11:24.369Z,37.00
2022-11-24T01:13:59.539Z,36.50
2022-11-24T01:16:30.651Z,34.75
2022-11-24T01:18:57.994Z,44.50
2022-11-24T01:21:25.647Z,40.75
2022-11-24T01:23:52.928Z,40.75
2022-11-24T01:26:22.974Z,50.75
2022-11-24T01:28:57.901Z,41.25
2022-11-24T01:31:26.568Z,41.25
2022-11-24T01:33:54.372Z,44.00
2022-11-24T01:36:22.657Z,44.25
2022-11-24T01:38:50.238Z,21.75
2022-11-24T01:41:21.811Z,51.75
2022-11-24T01:43:50.101Z,53.00
2022-11-24T01:46:29.873Z,55.00
2022-11-24T01:49:09.039Z,45.50
2022-11-24T01:51:43.436Z,50.50
2022-11-24T01:54:22.716Z,56.25
2022-11-24T01:56:54.800Z,50.25
2022-11-24T01:59:22.245Z,46.50
2022-11-24T02:01:52.616Z,51.25
2022-11-24T02:04:24.519Z,53.00
2022-11-24T02:06:54.821Z,44.50
2022-11-24T02:09:26.753Z,41.00
2022-11-24T02:11:55.442Z,41.75
2022-11-24T02:14:25.125Z,43.25
2022-11-24T02:16:53.506Z,42.50
2022-11-24T02:19:42.196Z,49.75
2022-11-24T02:22:19.072Z,40.50
2022-11-24T02:25:31.211Z,37.50
2022-11-24T02:28:02.508Z,39.50
2022-11-24T02:30:29.667Z,44.25
2022-11-24T02:32:57.476Z,38.25
2022-11-24T02:35:27.755Z,33.25
2022-11-24T02:37:55.263Z,39.75
2022-11-24T02:40:26.092Z,41.75
2022-11-24T02:42:59.088Z,43.75
2022-11-24T02:45:27.476Z,43.75
2022-11-24T02:47:55.022Z,39.25
2022-11-24T02:50:22.127Z,49.50
2022-11-24T02:52:49.623Z,39.00
2022-11-24T02:55:16.890Z,36.75
2022-11-24T02:57:44.524Z,43.00
2022-11-24T03:00:12.205Z,42.50
2022-11-24T03:02:40.821Z,33.50
2022-11-24T03:05:08.471Z,45.00
2022-11-24T03:07:36.111Z,43.75
2022-11-24T03:10:03.800Z,30.50
2022-11-24T03:12:31.382Z,37.00
2022-11-24T03:14:58.661Z,52.25
2022-11-24T03:17:33.241Z,39.25
2022-11-24T03:20:04.783Z,34.75
2022-11-24T03:22:33.046Z,37.75
2022-11-24T03:25:00.298Z,38.75
2022-11-24T03:27:27.868Z,40.00
2022-11-24T03:29:54.954Z,55.33
2022-11-24T03:32:22.580Z,46.25
2022-11-24T03:34:49.635Z,48.00
2022-11-24T03:37:17.308Z,57.00
2022-11-24T03:39:44.559Z,50.75
2022-11-24T03:42:15.174Z,52.00
2022-11-24T03:44:42.311Z,54.50
2022-11-24T03:47:11.780Z,50.25
2022-11-24T03:49:39.405Z,53.00
2022-11-24T03:52:08.391Z,41.75
2022-11-24T03:54:35.986Z,43.50
2022-11-24T03:57:03.758Z,49.00
2022-11-24T03:59:30.901Z,41.50
2022-11-24T04:01:58.487Z,52.75
2022-11-24T04:04:25.673Z,46.25
2022-11-24T04:06:53.113Z,37.50
2022-11-24T04:09:20.346Z,44.75
2022-11-24T04:12:06.339Z,51.00
2022-11-24T04:14:33.748Z,49.00
2022-11-24T04:17:01.492Z,43.25
2022-11-24T04:19:28.551Z,45.75
2022-11-24T04:21:56.154Z,49.25
2022-11-24T04:24:23.258Z,44.25
2022-11-24T04:26:50.676Z,49.00
2022-11-24T04:29:17.727Z,43.75
2022-11-24T04:31:45.275Z,42.25
2022-11-24T04:34:12.651Z,39.00
2022-11-24T04:36:41.288Z,43.50
2022-11-24T04:39:23.941Z,55.00
2022-11-24T04:41:53.690Z,56.75
2022-11-24T04:44:21.014Z,55.50
2022-11-24T04:46:48.669Z,55.00
2022-11-24T04:49:15.884Z,50.00
2022-11-24T04:51:43.384Z,55.00
2022-11-24T04:54:12.227Z,24.25
2022-11-24T04:56:41.523Z,50.50
2022-11-24T04:59:13.633Z,58.75
2022-11-24T05:01:43.056Z,42.25
2022-11-24T05:04:12.060Z,60.25
2022-11-24T05:06:39.919Z,38.50
2022-11-24T05:09:08.277Z,48.75
2022-11-24T05:11:35.722Z,55.25
2022-11-24T05:14:02.872Z,58.50
2022-11-24T05:16:30.441Z,50.50
2022-11-24T05:18:57.554Z,66.75
2022-11-24T05:21:25.049Z,62.25
2022-11-24T05:23:52.120Z,61.50
2022-11-24T05:26:19.698Z,60.33
2022-11-24T05:28:47.118Z,68.50
2022-11-24T05:31:14.706Z,73.75
2022-11-24T05:33:43.553Z,71.75
2022-11-24T05:36:33.736Z,92.50
2022-11-24T05:39:00.795Z,75.25
2022-11-24T05:41:28.243Z,74.25
2022-11-24T05:43:55.335Z,77.50
2022-11-24T05:46:22.796Z,75.75
2022-11-24T05:48:49.903Z,69.50
2022-11-24T05:51:17.451Z,67.25
2022-11-24T05:53:44.567Z,69.25
2022-11-24T05:56:11.990Z,84.00
2022-11-24T05:58:38.972Z,60.00
2022-11-24T06:01:07.748Z,61.75
2022-11-24T06:03:34.911Z,108.50
2022-11-24T06:06:02.290Z,84.75
2022-11-24T06:08:31.279Z,84.50
2022-11-24T06:11:17.425Z,67.25
2022-11-24T06:13:46.099Z,74.75
2022-11-24T06:16:13.687Z,103.00
2022-11-24T06:18:41.072Z,78.50
2022-11-24T06:21:11.210Z,70.50
2022-11-24T06:23:38.847Z,70.50
2022-11-24T06:26:06.557Z,61.00
2022-11-24T06:28:34.596Z,68.00
2022-11-24T06:31:03.748Z,72.75
2022-11-24T06:33:32.985Z,81.75
2022-11-24T06:36:06.493Z,65.00
2022-11-24T06:38:35.546Z,57.25
2022-11-24T06:41:06.520Z,76.00
2022-11-24T06:43:34.833Z,67.50
2022-11-24T06:46:03.034Z,65.00
2022-11-24T06:48:30.994Z,46.50
2022-11-24T06:51:03.134Z,59.75
2022-11-24T06:53:32.030Z,66.50
2022-11-24T06:56:01.031Z,62.50
2022-11-24T06:58:28.680Z,66.50
2022-11-24T07:00:56.267Z,50.50
2022-11-24T07:03:23.534Z,65.50
2022-11-24T07:05:57.373Z,65.75
2022-11-24T07:08:25.394Z,69.25
2022-11-24T07:10:52.904Z,61.50
2022-11-24T07:13:20.418Z,72.50
2022-11-24T07:15:47.864Z,77.50
2022-11-24T07:18:14.857Z,44.75
2022-11-24T07:20:42.320Z,62.75
2022-11-24T07:23:09.540Z,69.00
2022-11-24T07:25:36.976Z,71.00
2022-11-24T07:28:05.679Z,77.75
2022-11-24T07:30:33.107Z,80.00
2022-11-24T07:33:01.563Z,75.00
2022-11-24T07:35:29.745Z,85.50
2022-11-24T07:37:59.779Z,68.00
2022-11-24T07:40:27.829Z,91.50
2022-11-24T07:42:54.847Z,64.25
2022-11-24T07:45:22.494Z,91.00
2022-11-24T07:47:49.677Z,99.25
2022-11-24T07:50:17.508Z,88.75
2022-11-24T07:52:44.557Z,80.25
2022-11-24T07:55:11.985Z,69.00
2022-11-24T07:57:38.999Z,85.25
2022-11-24T08:00:07.091Z,85.50
2022-11-24T08:02:34.189Z,78.25
2022-11-24T08:05:01.650Z,82.50
2022-11-24T08:07:29.192Z,84.00
2022-11-24T08:09:56.716Z,84.75
2022-11-24T08:12:23.838Z,80.25
2022-11-24T08:14:51.710Z,93.00
2022-11-24T08:17:18.891Z,81.50
2022-11-24T08:19:46.306Z,81.25
2022-11-24T08:22:13.327Z,95.00
2022-11-24T08:24:46.462Z,91.75
2022-11-24T08:27:14.325Z,89.50
2022-11-24T08:29:42.647Z,77.00
2022-11-24T08:32:11.469Z,82.00
2022-11-24T08:34:39.301Z,86.25
2022-11-24T08:37:06.735Z,75.00
2022-11-24T08:39:34.393Z,85.25
2022-11-24T08:42:01.449Z,67.25
2022-11-24T08:44:29.066Z,87.75
2022-11-24T08:46:56.174Z,83.33
2022-11-24T08:49:23.658Z,90.50
2022-11-24T08:51:51.515Z,78.75
2022-11-24T08:54:19.175Z,86.75
2022-11-24T08:57:16.030Z,76.25
2022-11-24T09:00:36.364Z,79.25
2022-11-24T09:06:31.228Z,88.50
2022-11-24T09:09:01.332Z,87.50
2022-11-24T09:11:35.665Z,89.50
2022-11-24T09:14:25.880Z,82.75
2022-11-24T09:16:59.802Z,83.25
2022-11-24T09:19:27.009Z,79.00
2022-11-24T09:21:56.722Z,81.75
2022-11-24T09:24:24.127Z,86.50
2022-11-24T09:26:53.639Z,82.00
2022-11-24T09:29:20.670Z,93.75
2022-11-24T09:31:48.048Z,92.00
2022-11-24T09:34:15.924Z,91.25
2022-11-24T09:36:43.524Z,75.50
2022-11-24T09:39:11.356Z,90.25
2022-11-24T09:42:03.287Z,88.00
2022-11-24T09:44:54.600Z,76.25
2022-11-24T09:47:44.817Z,83.75
2022-11-24T09:50:49.889Z,74.00
2022-11-24T09:53:38.221Z,83.50
2022-11-24T09:56:18.071Z,60.00
2022-11-24T09:59:17.886Z,85.50
2022-11-24T10:01:46.749Z,72.00
2022-11-24T10:04:28.572Z,80.25
2022-11-24T10:07:17.402Z,60.25
2022-11-24T10:10:03.245Z,78.00
2022-11-24T10:12:53.585Z,80.25
2022-11-24T10:15:33.181Z,78.75
2022-11-24T10:18:21.756Z,77.25
2022-11-24T10:20:56.334Z,78.00
2022-11-24T10:23:55.229Z,70.50
2022-11-24T10:26:39.233Z,60.00
2022-11-24T10:29:30.899Z,73.00
2022-11-24T10:31:58.554Z,77.75
2022-11-24T10:34:34.705Z,78.25
2022-11-24T10:37:11.289Z,78.00
2022-11-24T10:39:44.051Z,78.00
2022-11-24T10:42:30.523Z,82.50
2022-11-24T10:45:10.339Z,78.00
2022-11-24T10:47:38.659Z,73.67
2022-11-24T10:50:28.310Z,76.25
2022-11-24T10:53:00.837Z,82.25
2022-11-24T10:55:56.702Z,83.50
2022-11-24T10:58:29.540Z,79.00
2022-11-24T11:01:01.429Z,69.25
2022-11-24T11:03:33.380Z,79.00
2022-11-24T11:06:14.794Z,80.00
2022-11-24T11:08:42.228Z,78.00
2022-11-24T11:11:21.025Z,75.00
2022-11-24T11:13:58.171Z,80.50
2022-11-24T11:16:33.322Z,84.50
2022-11-24T11:19:15.783Z,80.25
2022-11-24T11:22:00.483Z,81.50
2022-11-24T11:24:28.948Z,82.25
2022-11-24T11:27:05.182Z,88.00
2022-11-24T11:35:15.598Z,69.50
2022-11-24T11:37:44.378Z,78.50
2022-11-24T11:40:18.212Z,76.25
2022-11-24T11:43:04.976Z,74.50
2022-11-24T11:45:37.144Z,81.25
2022-11-24T11:48:04.198Z,80.00
2022-11-24T11:51:14.745Z,80.00
2022-11-24T11:53:52.527Z,78.25
2022-11-24T11:56:27.312Z,90.50
2022-11-24T11:59:22.514Z,81.75
2022-11-24T12:01:58.975Z,80.50
2022-11-24T12:04:57.062Z,74.25
2022-11-24T12:07:57.464Z,79.25
2022-11-24T12:10:45.969Z,81.50
2022-11-24T12:13:41.340Z,37.25
2022-11-24T12:16:43.102Z,78.25
2022-11-24T12:19:45.988Z,74.50
2022-11-24T12:22:15.853Z,80.25
2022-11-24T12:24:52.961Z,73.50
2022-11-24T12:27:27.931Z,67.25
2022-11-24T12:30:02.954Z,60.75
2022-11-24T12:32:41.323Z,65.75
2022-11-24T12:35:28.297Z,73.50
2022-11-24T12:38:13.093Z,75.25
2022-11-24T12:44:00.744Z,74.25
2022-11-24T12:46:40.866Z,72.50
2022-11-24T12:49:45.594Z,71.00
2022-11-24T12:52:37.180Z,79.50
2022-11-24T12:55:05.450Z,78.25
2022-11-24T12:58:09.382Z,75.00
2022-11-24T13:01:02.578Z,65.00
2022-11-24T13:03:48.365Z,68.25
2022-11-24T13:06:26.306Z,82.50
2022-11-24T13:08:53.976Z,82.75
2022-11-24T13:11:24.169Z,74.75
2022-11-24T13:13:59.837Z,81.00
2022-11-24T13:16:37.181Z,66.00
2022-11-24T13:19:20.395Z,76.50
2022-11-24T13:21:52.201Z,73.00
2022-11-24T13:24:36.457Z,69.25
2022-11-24T13:27:16.330Z,71.50
2022-11-24T13:29:51.202Z,76.00
2022-11-24T13:32:18.479Z,77.50
2022-11-24T13:34:46.159Z,73.75
2022-11-24T13:37:31.746Z,63.75
2022-11-24T13:40:12.425Z,74.75
2022-11-24T13:43:08.599Z,78.00
2022-11-24T13:45:49.635Z,78.00
2022-11-24T13:48:19.726Z,79.75
2022-11-24T13:50:50.804Z,84.25
2022-11-24T13:53:38.962Z,91.50
2022-11-24T13:56:22.289Z,88.50
2022-11-24T13:59:01.493Z,82.50
2022-11-24T14:01:33.679Z,86.50
2022-11-24T14:04:31.958Z,77.25
2022-11-24T14:07:08.797Z,86.00
2022-11-24T14:09:47.032Z,74.75
2022-11-24T14:12:20.747Z,89.25
2022-11-24T14:15:01.149Z,93.75
2022-11-24T14:17:31.645Z,85.50
2022-11-24T14:19:59.773Z,83.75
2022-11-24T14:22:41.505Z,80.50
2022-11-24T14:25:26.331Z,82.25
2022-11-24T14:27:54.053Z,88.00
2022-11-24T14:30:23.700Z,80.75
2022-11-24T14:33:16.662Z,85.75
2022-11-24T14:35:46.272Z,91.25
2022-11-24T14:38:14.547Z,86.75
2022-11-24T14:40:56.547Z,90.75
2022-11-24T14:43:33.313Z,81.25
2022-11-24T14:46:14.974Z,81.75
2022-11-24T14:48:50.968Z,83.00
2022-11-24T14:51:31.693Z,80.75
2022-11-24T14:54:03.287Z,95.75
2022-11-24T14:56:36.607Z,86.00
2022-11-24T14:59:20.362Z,87.00
2022-11-24T15:01:47.755Z,86.75
2022-11-24T15:07:26.239Z,112.00
2022-11-24T15:09:58.329Z,103.00
2022-11-24T15:12:35.028Z,104.00
2022-11-24T15:15:14.701Z,109.50
2022-11-24T15:17:51.459Z,101.00
2022-11-24T15:20:26.627Z,103.25
2022-11-24T15:23:13.579Z,95.25
2022-11-24T15:25:41.063Z,83.00
2022-11-24T15:28:09.407Z,98.25
2022-11-24T15:30:37.524Z,103.50
2022-11-24T15:33:14.773Z,95.75
2022-11-24T15:35:42.896Z,110.67
2022-11-24T15:38:10.543Z,86.25
2022-11-24T15:40:39.600Z,92.00
2022-11-24T15:43:33.725Z,97.50
2022-11-24T15:46:02.833Z,88.50
2022-11-24T15:48:30.517Z,98.00
2022-11-24T15:50:59.864Z,100.00
2022-11-24T15:53:34.902Z,83.50
2022-11-24T15:56:05.622Z,103.25
2022-11-24T15:58:32.729Z,98.50
2022-11-24T16:01:00.409Z,103.50
2022-11-24T16:03:57.425Z,99.75
2022-11-24T16:06:23.791Z,98.00
2022-11-24T16:08:53.612Z,139.50
2022-11-24T16:11:21.834Z,169.75
2022-11-24T16:13:52.926Z,203.50
2022-11-24T16:16:22.310Z,210.50
2022-11-24T16:18:49.502Z,237.75
2022-11-24T16:21:16.947Z,164.00
2022-11-24T16:23:44.090Z,107.25
2022-11-24T16:26:11.671Z,118.75
2022-11-24T16:28:38.986Z,113.50
2022-11-24T16:31:06.548Z,94.00
2022-11-24T16:33:33.759Z,95.00
2022-11-24T16:36:01.171Z,93.25
2022-11-24T16:38:28.305Z,103.50
2022-11-24T16:40:57.176Z,99.50
2022-11-24T16:43:24.879Z,96.75
2022-11-24T16:46:16.554Z,102.00
2022-11-24T16:48:45.747Z,105.25
2022-11-24T16:51:14.179Z,90.50
2022-11-24T16:53:41.997Z,106.75
2022-11-24T16:56:10.021Z,125.25
2022-11-24T16:58:38.621Z,128.00
2022-11-24T17:01:08.408Z,89.00
2022-11-24T17:03:38.553Z,143.25
2022-11-24T17:06:08.445Z,105.00
2022-11-24T17:08:37.042Z,114.67
2022-11-24T17:11:22.397Z,111.50
2022-11-24T17:13:50.649Z,97.75
2022-11-24T17:16:20.799Z,98.50
2022-11-24T17:18:48.792Z,88.25
2022-11-24T17:21:19.214Z,91.00
2022-11-24T17:23:46.773Z,98.00
2022-11-24T17:26:16.499Z,108.25
2022-11-24T17:28:44.685Z,95.00
2022-11-24T17:31:21.898Z,94.75
2022-11-24T17:33:51.336Z,93.75
2022-11-24T17:36:20.412Z,101.50
2022-11-24T17:38:49.636Z,121.50
2022-11-24T17:41:18.549Z,99.25
2022-11-24T17:43:50.557Z,107.50
2022-11-24T17:46:18.387Z,86.00
2022-11-24T17:48:46.852Z,97.25
2022-11-24T17:51:17.068Z,92.50
2022-11-24T17:53:46.693Z,97.25
2022-11-24T17:56:23.797Z,88.75
2022-11-24T17:58:59.705Z,88.75
2022-11-24T18:01:32.508Z,89.25
2022-11-24T18:03:59.976Z,91.00
2022-11-24T18:06:28.984Z,87.75
2022-11-24T18:08:58.009Z,87.50
2022-11-24T18:11:31.514Z,90.25
2022-11-24T18:14:03.032Z,100.50
2022-11-24T18:16:33.663Z,92.50
2022-11-24T18:19:11.072Z,113.75
2022-11-24T18:21:40.556Z,100.75
2022-11-24T18:24:12.465Z,93.75
2022-11-24T18:26:41.366Z,98.00
2022-11-24T18:29:08.694Z,96.00
2022-11-24T18:31:36.662Z,88.25
2022-11-24T18:34:05.617Z,82.50
2022-11-24T18:36:33.405Z,87.50
2022-11-24T18:39:04.975Z,102.75
2022-11-24T18:41:33.245Z,95.00
2022-11-24T18:44:07.878Z,85.75
2022-11-24T18:46:37.595Z,91.75
2022-11-24T18:49:05.351Z,91.00
2022-11-24T18:51:33.411Z,87.75
2022-11-24T18:54:02.335Z,85.25
2022-11-24T18:56:30.395Z,81.00
2022-11-24T18:58:57.906Z,83.75
2022-11-24T19:01:27.828Z,81.00
2022-11-24T19:03:57.604Z,88.25
2022-11-24T19:06:32.820Z,77.00
2022-11-24T19:09:03.306Z,78.00
2022-11-24T19:11:34.039Z,82.75
2022-11-24T19:14:05.471Z,79.25
2022-11-24T19:16:33.683Z,67.00
2022-11-24T19:19:02.951Z,80.50
2022-11-24T19:21:31.890Z,74.00
2022-11-24T19:24:04.528Z,73.25
2022-11-24T19:26:35.154Z,76.25
2022-11-24T19:29:03.517Z,77.50
2022-11-24T19:31:31.464Z,76.75
2022-11-24T19:33:59.962Z,81.75
2022-11-24T19:36:27.718Z,94.25
2022-11-24T19:38:56.985Z,85.50
2022-11-24T19:41:27.628Z,69.75
2022-11-24T19:43:55.304Z,77.25
2022-11-24T19:46:28.518Z,74.75
2022-11-24T19:48:58.623Z,77.25
2022-11-24T19:51:34.471Z,73.75
2022-11-24T19:54:02.494Z,71.75
2022-11-24T19:56:34.542Z,79.50
2022-11-24T19:59:10.320Z,75.25
2022-11-24T20:01:40.821Z,68.75
2022-11-24T20:04:13.851Z,52.50
2022-11-24T20:06:44.264Z,68.00
2022-11-24T20:09:13.563Z,82.75
2022-11-24T20:11:43.165Z,80.25
2022-11-24T20:14:15.291Z,84.25
2022-11-24T20:16:48.050Z,79.75
2022-11-24T20:19:18.772Z,71.25
2022-11-24T20:21:48.197Z,69.75
2022-11-24T20:24:18.435Z,70.75
2022-11-24T20:26:59.213Z,71.00
2022-11-24T20:29:28.693Z,83.50
2022-11-24T20:32:08.146Z,72.25
2022-11-24T20:34:36.114Z,84.75
2022-11-24T20:37:13.916Z,85.75
2022-11-24T20:39:46.392Z,95.00
2022-11-24T20:42:13.923Z,90.00
2022-11-24T20:44:41.081Z,95.75
2022-11-24T20:47:08.570Z,84.25
2022-11-24T20:49:38.174Z,90.75
2022-11-24T20:52:15.797Z,86.50
2022-11-24T20:54:48.256Z,80.00
2022-11-24T20:57:15.792Z,81.75
2022-11-24T20:59:42.906Z,93.00
2022-11-24T21:02:10.994Z,93.75
2022-11-24T21:04:38.319Z,103.25
2022-11-24T21:07:05.919Z,108.00
2022-11-24T21:09:33.054Z,89.00
2022-11-24T21:12:00.659Z,92.50
2022-11-24T21:14:32.437Z,98.00
2022-11-24T21:17:02.518Z,95.75
2022-11-24T21:19:29.686Z,100.50
2022-11-24T21:21:57.117Z,94.50
2022-11-24T21:24:24.275Z,97.75
2022-11-24T21:26:53.106Z,97.50
2022-11-24T21:29:23.724Z,78.75
2022-11-24T21:31:52.251Z,90.75
2022-11-24T21:34:19.735Z,88.00
2022-11-24T21:36:47.346Z,83.25
2022-11-24T21:39:15.407Z,88.75
2022-11-24T21:41:43.547Z,92.75
2022-11-24T21:44:15.126Z,88.25
2022-11-24T21:46:48.276Z,89.25
2022-11-24T21:49:18.004Z,84.50
2022-11-24T21:51:45.358Z,76.75
2022-11-24T21:54:12.306Z,75.25
2022-11-24T21:56:39.720Z,80.75
2022-11-24T21:59:06.685Z,84.75
2022-11-24T22:01:34.205Z,74.75
2022-11-24T22:04:01.225Z,83.50
2022-11-24T22:06:28.733Z,86.75
2022-11-24T22:08:55.716Z,81.00
2022-11-24T22:11:25.224Z,39.25
2022-11-24T22:13:52.593Z,82.50
2022-11-24T22:16:22.493Z,82.75
2022-11-24T22:18:50.706Z,87.00
2022-11-24T22:21:30.841Z,79.25
2022-11-24T22:23:58.023Z,82.25
2022-11-24T22:26:26.414Z,82.50
2022-11-24T22:28:54.750Z,77.25
2022-11-24T22:31:27.944Z,82.25
2022-11-24T22:33:56.468Z,88.25
2022-11-24T22:36:26.401Z,87.25
2022-11-24T22:38:55.651Z,78.25
2022-11-24T22:41:23.781Z,82.75
2022-11-24T22:43:51.198Z,88.00
2022-11-24T22:46:24.498Z,80.50
2022-11-24T22:48:55.540Z,89.25
2022-11-24T22:51:28.415Z,82.75
2022-11-24T22:53:57.596Z,90.25
2022-11-24T22:56:25.614Z,87.75
2022-11-24T22:58:52.674Z,92.00
2022-11-24T23:01:24.883Z,79.25
2022-11-24T23:03:56.652Z,78.75
2022-11-24T23:06:26.630Z,83.75
2022-11-24T23:08:54.599Z,80.00
2022-11-24T23:11:37.189Z,70.50
2022-11-24T23:14:07.238Z,90.50
2022-11-24T23:16:34.674Z,83.75
2022-11-24T23:19:01.719Z,86.75
